sensor_id;sensor_type;location;lat;lon;timestamp;pressure;altitude;pressure_sealevel;temperature;humidity
53116;BME280;39010;48.088;7.954;2022-09-17T00:01:21;98408.94;;;10.00;100.00
53116;BME280;39010;48.088;7.954;2022-09-17T00:03:56;98406.91;;;10.02;100.00
53116;BME280;39010;48.088;7.954;2022-09-17T00:06:24;98400.25;;;9.98;100.00
53116;BME280;39010;48.088;7.954;2022-09-17T00:08:52;98404.09;;;9.95;100.00
53116;BME280;39010;48.088;7.954;2022-09-17T00:11:23;98401.69;;;10.00;100.00
53116;BME280;39010;48.088;7.954;2022-09-17T00:13:51;98408.66;;;9.95;100.00
53116;BME280;39010;48.088;7.954;2022-09-17T00:16:24;98413.97;;;9.80;100.00
53116;BME280;39010;48.088;7.954;2022-09-17T00:18:51;98417.59;;;9.87;100.00
53116;BME280;39010;48.088;7.954;2022-09-17T00:21:18;98421.00;;;9.81;100.00
53116;BME280;39010;48.088;7.954;2022-09-17T00:23:45;98422.38;;;9.77;100.00
53116;BME280;39010;48.088;7.954;2022-09-17T00:26:12;98415.00;;;9.79;100.00
53116;BME280;39010;48.088;7.954;2022-09-17T00:28:38;98417.13;;;9.68;100.00
53116;BME280;39010;48.088;7.954;2022-09-17T00:31:07;98411.19;;;9.58;100.00
53116;BME280;39010;48.088;7.954;2022-09-17T00:33:35;98418.75;;;9.54;100.00
53116;BME280;39010;48.088;7.954;2022-09-17T00:36:03;98415.69;;;9.57;100.00
53116;BME280;39010;48.088;7.954;2022-09-17T00:38:30;98411.56;;;9.55;100.00
53116;BME280;39010;48.088;7.954;2022-09-17T00:40:57;98411.91;;;9.52;100.00
53116;BME280;39010;48.088;7.954;2022-09-17T00:43:39;98418.66;;;9.48;100.00
53116;BME280;39010;48.088;7.954;2022-09-17T00:46:24;98424.47;;;9.51;100.00
53116;BME280;39010;48.088;7.954;2022-09-17T00:48:53;98414.41;;;9.53;100.00
53116;BME280;39010;48.088;7.954;2022-09-17T00:51:26;98421.06;;;9.57;100.00
53116;BME280;39010;48.088;7.954;2022-09-17T00:53:55;98424.81;;;9.71;100.00
53116;BME280;39010;48.088;7.954;2022-09-17T00:56:25;98421.25;;;9.56;100.00
53116;BME280;39010;48.088;7.954;2022-09-17T00:58:53;98418.72;;;9.39;100.00
53116;BME280;39010;48.088;7.954;2022-09-17T01:01:20;98426.19;;;9.44;100.00
53116;BME280;39010;48.088;7.954;2022-09-17T01:03:47;98432.75;;;9.41;100.00
53116;BME280;39010;48.088;7.954;2022-09-17T01:09:08;98424.66;;;9.50;100.00
53116;BME280;39010;48.088;7.954;2022-09-17T01:14:47;98431.97;;;9.56;100.00
53116;BME280;39010;48.088;7.954;2022-09-17T01:26:24;98439.16;;;9.55;100.00
53116;BME280;39010;48.088;7.954;2022-09-17T01:29:27;98448.34;;;9.61;100.00
53116;BME280;39010;48.088;7.954;2022-09-17T01:32:11;98454.44;;;9.55;100.00
53116;BME280;39010;48.088;7.954;2022-09-17T01:34:51;98447.09;;;9.49;100.00
53116;BME280;39010;48.088;7.954;2022-09-17T01:37:37;98464.66;;;9.51;100.00
53116;BME280;39010;48.088;7.954;2022-09-17T01:40:17;98458.13;;;9.54;100.00
53116;BME280;39010;48.088;7.954;2022-09-17T01:45:48;98468.00;;;9.53;100.00
53116;BME280;39010;48.088;7.954;2022-09-17T01:48:26;98458.19;;;9.46;100.00
53116;BME280;39010;48.088;7.954;2022-09-17T01:51:03;98460.81;;;9.54;100.00
53116;BME280;39010;48.088;7.954;2022-09-17T01:53:48;98452.16;;;9.43;100.00
53116;BME280;39010;48.088;7.954;2022-09-17T01:56:20;98454.19;;;9.41;100.00
53116;BME280;39010;48.088;7.954;2022-09-17T01:58:58;98443.50;;;9.56;95.32
53116;BME280;39010;48.088;7.954;2022-09-17T02:01:28;98454.78;;;9.52;97.28
53116;BME280;39010;48.088;7.954;2022-09-17T02:04:02;98447.22;;;9.55;96.62
53116;BME280;39010;48.088;7.954;2022-09-17T02:06:36;98453.13;;;9.51;99.21
53116;BME280;39010;48.088;7.954;2022-09-17T02:09:14;98449.44;;;9.52;99.65
53116;BME280;39010;48.088;7.954;2022-09-17T02:11:44;98446.25;;;9.48;100.00
53116;BME280;39010;48.088;7.954;2022-09-17T02:14:19;98450.31;;;9.44;98.05
53116;BME280;39010;48.088;7.954;2022-09-17T02:16:51;98449.66;;;9.42;97.72
53116;BME280;39010;48.088;7.954;2022-09-17T02:19:24;98447.16;;;9.40;98.09
53116;BME280;39010;48.088;7.954;2022-09-17T02:24:26;98454.56;;;9.38;100.00
53116;BME280;39010;48.088;7.954;2022-09-17T02:27:02;98454.25;;;9.33;100.00
53116;BME280;39010;48.088;7.954;2022-09-17T02:29:36;98459.78;;;9.32;100.00
53116;BME280;39010;48.088;7.954;2022-09-17T02:32:03;98465.97;;;9.32;100.00
53116;BME280;39010;48.088;7.954;2022-09-17T02:34:30;98460.28;;;9.35;100.00
53116;BME280;39010;48.088;7.954;2022-09-17T02:36:57;98456.44;;;9.29;100.00
53116;BME280;39010;48.088;7.954;2022-09-17T02:39:26;98452.66;;;9.24;100.00
53116;BME280;39010;48.088;7.954;2022-09-17T02:55:59;98448.75;;;9.26;100.00
53116;BME280;39010;48.088;7.954;2022-09-17T03:01:28;98455.63;;;9.29;100.00
53116;BME280;39010;48.088;7.954;2022-09-17T03:03:58;98452.28;;;9.27;100.00
53116;BME280;39010;48.088;7.954;2022-09-17T03:06:26;98458.00;;;9.24;100.00
53116;BME280;39010;48.088;7.954;2022-09-17T03:08:52;98457.09;;;9.08;100.00
53116;BME280;39010;48.088;7.954;2022-09-17T03:11:19;98458.94;;;9.08;100.00
53116;BME280;39010;48.088;7.954;2022-09-17T03:13:46;98459.13;;;9.06;100.00
53116;BME280;39010;48.088;7.954;2022-09-17T03:16:13;98464.03;;;8.94;100.00
53116;BME280;39010;48.088;7.954;2022-09-17T03:18:40;98473.22;;;9.00;100.00
53116;BME280;39010;48.088;7.954;2022-09-17T03:21:06;98463.97;;;9.03;100.00
53116;BME280;39010;48.088;7.954;2022-09-17T03:23:33;98468.16;;;9.05;100.00
53116;BME280;39010;48.088;7.954;2022-09-17T03:25:59;98474.25;;;8.91;100.00
53116;BME280;39010;48.088;7.954;2022-09-17T03:28:26;98479.06;;;8.95;100.00
53116;BME280;39010;48.088;7.954;2022-09-17T03:30:53;98473.25;;;8.92;100.00
53116;BME280;39010;48.088;7.954;2022-09-17T03:33:20;98481.31;;;8.83;100.00
53116;BME280;39010;48.088;7.954;2022-09-17T03:35:46;98484.88;;;8.76;100.00
53116;BME280;39010;48.088;7.954;2022-09-17T03:38:13;98481.06;;;8.70;100.00
53116;BME280;39010;48.088;7.954;2022-09-17T03:40:39;98479.34;;;8.77;100.00
53116;BME280;39010;48.088;7.954;2022-09-17T03:43:07;98481.50;;;8.82;100.00
53116;BME280;39010;48.088;7.954;2022-09-17T03:45:33;98487.22;;;8.79;100.00
53116;BME280;39010;48.088;7.954;2022-09-17T03:48:00;98487.22;;;8.79;100.00
53116;BME280;39010;48.088;7.954;2022-09-17T03:50:27;98492.03;;;8.83;100.00
53116;BME280;39010;48.088;7.954;2022-09-17T03:52:53;98485.66;;;8.84;100.00
53116;BME280;39010;48.088;7.954;2022-09-17T03:55:19;98488.16;;;8.86;100.00
53116;BME280;39010;48.088;7.954;2022-09-17T03:57:46;98494.38;;;8.87;100.00
53116;BME280;39010;48.088;7.954;2022-09-17T04:00:13;98492.91;;;8.76;100.00
53116;BME280;39010;48.088;7.954;2022-09-17T04:02:42;98494.72;;;8.83;100.00
53116;BME280;39010;48.088;7.954;2022-09-17T04:05:09;98493.75;;;8.76;100.00
53116;BME280;39010;48.088;7.954;2022-09-17T04:07:35;98500.59;;;8.79;100.00
53116;BME280;39010;48.088;7.954;2022-09-17T04:10:02;98506.31;;;8.76;100.00
53116;BME280;39010;48.088;7.954;2022-09-17T04:12:30;98497.19;;;8.85;100.00
53116;BME280;39010;48.088;7.954;2022-09-17T04:14:57;98504.06;;;8.88;100.00
53116;BME280;39010;48.088;7.954;2022-09-17T04:17:23;98508.63;;;8.79;100.00
53116;BME280;39010;48.088;7.954;2022-09-17T04:19:50;98500.09;;;8.75;100.00
53116;BME280;39010;48.088;7.954;2022-09-17T04:22:16;98498.78;;;8.71;100.00
53116;BME280;39010;48.088;7.954;2022-09-17T04:24:43;98501.59;;;8.78;100.00
53116;BME280;39010;48.088;7.954;2022-09-17T04:27:09;98500.78;;;8.69;100.00
53116;BME280;39010;48.088;7.954;2022-09-17T04:29:36;98501.78;;;8.68;100.00
53116;BME280;39010;48.088;7.954;2022-09-17T04:32:02;98504.09;;;8.79;100.00
53116;BME280;39010;48.088;7.954;2022-09-17T04:34:29;98501.97;;;8.75;100.00
53116;BME280;39010;48.088;7.954;2022-09-17T04:36:58;98503.31;;;8.71;100.00
53116;BME280;39010;48.088;7.954;2022-09-17T04:39:24;98510.31;;;8.80;100.00
53116;BME280;39010;48.088;7.954;2022-09-17T04:41:51;98510.81;;;8.75;100.00
53116;BME280;39010;48.088;7.954;2022-09-17T04:44:17;98518.84;;;8.75;100.00
53116;BME280;39010;48.088;7.954;2022-09-17T04:46:44;98516.69;;;8.71;100.00
53116;BME280;39010;48.088;7.954;2022-09-17T04:49:11;98523.91;;;8.62;100.00
53116;BME280;39010;48.088;7.954;2022-09-17T04:51:38;98528.44;;;8.61;100.00
53116;BME280;39010;48.088;7.954;2022-09-17T04:54:04;98523.56;;;8.65;100.00
53116;BME280;39010;48.088;7.954;2022-09-17T04:56:31;98536.28;;;8.63;100.00
53116;BME280;39010;48.088;7.954;2022-09-17T04:58:57;98533.94;;;8.60;100.00
53116;BME280;39010;48.088;7.954;2022-09-17T05:01:23;98534.25;;;8.65;100.00
53116;BME280;39010;48.088;7.954;2022-09-17T05:03:50;98535.47;;;8.54;100.00
53116;BME280;39010;48.088;7.954;2022-09-17T05:06:16;98540.28;;;8.59;100.00
53116;BME280;39010;48.088;7.954;2022-09-17T05:08:43;98543.13;;;8.65;100.00
53116;BME280;39010;48.088;7.954;2022-09-17T05:11:09;98545.81;;;8.65;100.00
53116;BME280;39010;48.088;7.954;2022-09-17T05:13:36;98548.13;;;8.77;100.00
53116;BME280;39010;48.088;7.954;2022-09-17T05:16:02;98552.31;;;8.63;100.00
53116;BME280;39010;48.088;7.954;2022-09-17T05:18:29;98551.31;;;8.64;100.00
53116;BME280;39010;48.088;7.954;2022-09-17T05:20:56;98545.50;;;8.52;100.00
53116;BME280;39010;48.088;7.954;2022-09-17T05:23:23;98552.03;;;8.49;100.00
53116;BME280;39010;48.088;7.954;2022-09-17T05:25:49;98546.16;;;8.46;100.00
53116;BME280;39010;48.088;7.954;2022-09-17T05:28:16;98552.34;;;8.46;100.00
53116;BME280;39010;48.088;7.954;2022-09-17T05:30:42;98544.84;;;8.50;100.00
53116;BME280;39010;48.088;7.954;2022-09-17T05:33:08;98545.50;;;8.52;100.00
53116;BME280;39010;48.088;7.954;2022-09-17T05:35:35;98543.63;;;8.61;100.00
53116;BME280;39010;48.088;7.954;2022-09-17T05:38:02;98547.66;;;8.48;100.00
53116;BME280;39010;48.088;7.954;2022-09-17T05:40:30;98558.22;;;8.50;100.00
53116;BME280;39010;48.088;7.954;2022-09-17T05:43:03;98551.69;;;8.52;100.00
53116;BME280;39010;48.088;7.954;2022-09-17T05:45:33;98565.03;;;8.61;100.00
53116;BME280;39010;48.088;7.954;2022-09-17T05:48:00;98561.34;;;8.62;100.00
53116;BME280;39010;48.088;7.954;2022-09-17T05:50:28;98570.91;;;8.64;100.00
53116;BME280;39010;48.088;7.954;2022-09-17T05:52:54;98578.06;;;8.72;100.00
53116;BME280;39010;48.088;7.954;2022-09-17T05:55:22;98578.59;;;8.67;100.00
53116;BME280;39010;48.088;7.954;2022-09-17T05:57:50;98584.44;;;8.63;100.00
53116;BME280;39010;48.088;7.954;2022-09-17T06:00:17;98580.41;;;8.67;100.00
53116;BME280;39010;48.088;7.954;2022-09-17T06:02:44;98582.78;;;8.45;100.00
53116;BME280;39010;48.088;7.954;2022-09-17T06:05:10;98581.44;;;8.49;100.00
53116;BME280;39010;48.088;7.954;2022-09-17T06:07:37;98585.47;;;8.53;100.00
53116;BME280;39010;48.088;7.954;2022-09-17T06:10:05;98578.09;;;8.55;100.00
53116;BME280;39010;48.088;7.954;2022-09-17T06:12:33;98585.47;;;8.53;100.00
53116;BME280;39010;48.088;7.954;2022-09-17T06:15:02;98582.78;;;8.62;100.00
53116;BME280;39010;48.088;7.954;2022-09-17T06:17:35;98590.44;;;8.73;100.00
53116;BME280;39010;48.088;7.954;2022-09-17T06:20:02;98587.09;;;8.71;100.00
53116;BME280;39010;48.088;7.954;2022-09-17T06:22:30;98596.63;;;8.82;100.00
53116;BME280;39010;48.088;7.954;2022-09-17T06:24:56;98589.06;;;8.86;100.00
53116;BME280;39010;48.088;7.954;2022-09-17T06:27:30;98598.63;;;8.80;100.00
53116;BME280;39010;48.088;7.954;2022-09-17T06:29:56;98596.09;;;8.87;100.00
53116;BME280;39010;48.088;7.954;2022-09-17T06:32:25;98604.56;;;8.98;100.00
53116;BME280;39010;48.088;7.954;2022-09-17T06:34:52;98601.72;;;9.00;100.00
53116;BME280;39010;48.088;7.954;2022-09-17T06:37:19;98601.03;;;9.06;100.00
53116;BME280;39010;48.088;7.954;2022-09-17T06:39:45;98604.75;;;8.97;100.00
53116;BME280;39010;48.088;7.954;2022-09-17T06:42:12;98603.75;;;8.98;100.00
53116;BME280;39010;48.088;7.954;2022-09-17T06:44:38;98608.88;;;9.08;100.00
53116;BME280;39010;48.088;7.954;2022-09-17T06:47:06;98607.41;;;9.05;100.00
53116;BME280;39010;48.088;7.954;2022-09-17T06:49:33;98602.34;;;9.19;100.00
53116;BME280;39010;48.088;7.954;2022-09-17T06:51:59;98609.84;;;9.23;100.00
53116;BME280;39010;48.088;7.954;2022-09-17T06:54:26;98612.47;;;9.32;100.00
53116;BME280;39010;48.088;7.954;2022-09-17T06:56:53;98608.28;;;9.37;100.00
53116;BME280;39010;48.088;7.954;2022-09-17T06:59:19;98615.66;;;9.35;100.00
53116;BME280;39010;48.088;7.954;2022-09-17T07:01:46;98608.94;;;9.39;100.00
53116;BME280;39010;48.088;7.954;2022-09-17T07:04:13;98614.59;;;9.45;100.00
53116;BME280;39010;48.088;7.954;2022-09-17T07:06:42;98612.34;;;9.56;100.00
53116;BME280;39010;48.088;7.954;2022-09-17T07:09:08;98621.56;;;9.62;100.00
53116;BME280;39010;48.088;7.954;2022-09-17T07:11:37;98613.88;;;9.59;100.00
53116;BME280;39010;48.088;7.954;2022-09-17T07:14:04;98616.41;;;9.76;100.00
53116;BME280;39010;48.088;7.954;2022-09-17T07:16:32;98624.41;;;9.84;100.00
53116;BME280;39010;48.088;7.954;2022-09-17T07:19:02;98617.97;;;9.93;100.00
53116;BME280;39010;48.088;7.954;2022-09-17T07:21:29;98613.22;;;10.03;100.00
53116;BME280;39010;48.088;7.954;2022-09-17T07:23:55;98620.31;;;10.20;100.00
53116;BME280;39010;48.088;7.954;2022-09-17T07:26:22;98623.53;;;10.15;100.00
53116;BME280;39010;48.088;7.954;2022-09-17T07:28:49;98628.16;;;10.21;100.00
53116;BME280;39010;48.088;7.954;2022-09-17T07:31:15;98632.06;;;10.19;99.34
53116;BME280;39010;48.088;7.954;2022-09-17T07:33:43;98636.69;;;10.01;96.82
53116;BME280;39010;48.088;7.954;2022-09-17T07:36:11;98628.94;;;10.07;98.90
53116;BME280;39010;48.088;7.954;2022-09-17T07:38:38;98629.66;;;10.00;98.03
53116;BME280;39010;48.088;7.954;2022-09-17T07:41:11;98631.94;;;9.88;98.49
53116;BME280;39010;48.088;7.954;2022-09-17T07:43:39;98632.94;;;10.11;97.71
53116;BME280;39010;48.088;7.954;2022-09-17T07:46:06;98638.13;;;10.12;95.03
53116;BME280;39010;48.088;7.954;2022-09-17T07:48:35;98644.38;;;10.05;94.68
53116;BME280;39010;48.088;7.954;2022-09-17T07:51:01;98636.81;;;10.08;96.33
53116;BME280;39010;48.088;7.954;2022-09-17T07:53:28;98646.09;;;9.97;94.06
53116;BME280;39010;48.088;7.954;2022-09-17T07:55:57;98637.50;;;9.79;92.82
53116;BME280;39010;48.088;7.954;2022-09-17T07:58:29;98638.81;;;9.83;92.77
53116;BME280;39010;48.088;7.954;2022-09-17T08:01:04;98639.06;;;9.96;93.18
53116;BME280;39010;48.088;7.954;2022-09-17T08:03:30;98637.66;;;10.09;93.87
53116;BME280;39010;48.088;7.954;2022-09-17T08:06:07;98649.75;;;10.05;92.34
53116;BME280;39010;48.088;7.954;2022-09-17T08:08:34;98649.63;;;9.98;91.13
53116;BME280;39010;48.088;7.954;2022-09-17T08:11:07;98656.19;;;9.95;90.26
53116;BME280;39010;48.088;7.954;2022-09-17T08:13:34;98655.00;;;9.98;87.93
53116;BME280;39010;48.088;7.954;2022-09-17T08:16:06;98657.94;;;10.11;91.32
53116;BME280;39010;48.088;7.954;2022-09-17T08:18:34;98656.00;;;10.20;90.67
53116;BME280;39010;48.088;7.954;2022-09-17T08:21:04;98650.63;;;10.20;90.79
53116;BME280;39010;48.088;7.954;2022-09-17T08:23:33;98656.31;;;10.25;90.34
53116;BME280;39010;48.088;7.954;2022-09-17T08:26:00;98658.09;;;10.10;89.37
53116;BME280;39010;48.088;7.954;2022-09-17T08:28:27;98669.63;;;10.19;88.82
53116;BME280;39010;48.088;7.954;2022-09-17T08:31:02;98668.75;;;10.18;89.45
53116;BME280;39010;48.088;7.954;2022-09-17T08:33:31;98658.03;;;10.18;86.92
53116;BME280;39010;48.088;7.954;2022-09-17T08:35:58;98656.97;;;10.27;86.80
53116;BME280;39010;48.088;7.954;2022-09-17T08:38:29;98657.06;;;10.57;85.83
53116;BME280;39010;48.088;7.954;2022-09-17T08:43:42;98648.50;;;10.92;84.44
53116;BME280;39010;48.088;7.954;2022-09-17T08:46:10;98660.97;;;12.12;75.89
53116;BME280;39010;48.088;7.954;2022-09-17T08:48:53;98667.19;;;12.12;82.60
53116;BME280;39010;48.088;7.954;2022-09-17T08:51:43;98666.66;;;11.50;79.26
53116;BME280;39010;48.088;7.954;2022-09-17T08:54:39;98663.63;;;11.23;82.07
53116;BME280;39010;48.088;7.954;2022-09-17T08:57:28;98676.53;;;11.28;82.90
53116;BME280;39010;48.088;7.954;2022-09-17T09:00:10;98673.41;;;10.86;80.26
53116;BME280;39010;48.088;7.954;2022-09-17T09:05:47;98674.28;;;11.01;80.75
53116;BME280;39010;48.088;7.954;2022-09-17T09:08:23;98679.28;;;11.04;81.37
53116;BME280;39010;48.088;7.954;2022-09-17T09:10:54;98671.31;;;11.11;77.71
53116;BME280;39010;48.088;7.954;2022-09-17T09:13:24;98675.78;;;11.34;79.36
53116;BME280;39010;48.088;7.954;2022-09-17T09:16:05;98673.19;;;11.26;78.13
53116;BME280;39010;48.088;7.954;2022-09-17T09:18:39;98672.34;;;11.10;77.78
53116;BME280;39010;48.088;7.954;2022-09-17T09:21:19;98674.00;;;11.11;79.67
53116;BME280;39010;48.088;7.954;2022-09-17T09:29:29;98686.22;;;10.99;82.20
53116;BME280;39010;48.088;7.954;2022-09-17T09:34:43;98694.69;;;10.72;80.74
53116;BME280;39010;48.088;7.954;2022-09-17T09:37:24;98700.31;;;10.63;82.80
53116;BME280;39010;48.088;7.954;2022-09-17T09:39:53;98695.75;;;10.48;80.01
53116;BME280;39010;48.088;7.954;2022-09-17T09:42:28;98704.91;;;10.30;84.76
53116;BME280;39010;48.088;7.954;2022-09-17T09:44:58;98698.94;;;10.20;85.15
53116;BME280;39010;48.088;7.954;2022-09-17T09:47:44;98705.66;;;10.16;88.57
53116;BME280;39010;48.088;7.954;2022-09-17T09:53:27;98714.16;;;9.96;88.39
53116;BME280;39010;48.088;7.954;2022-09-17T09:56:14;98714.41;;;10.10;88.11
53116;BME280;39010;48.088;7.954;2022-09-17T09:58:50;98715.16;;;10.27;86.88
53116;BME280;39010;48.088;7.954;2022-09-17T10:01:18;98707.19;;;10.42;89.05
53116;BME280;39010;48.088;7.954;2022-09-17T10:03:48;98712.66;;;10.72;87.02
53116;BME280;39010;48.088;7.954;2022-09-17T10:06:17;98708.53;;;10.84;86.10
53116;BME280;39010;48.088;7.954;2022-09-17T10:11:22;98706.81;;;11.22;81.21
53116;BME280;39010;48.088;7.954;2022-09-17T10:13:49;98707.94;;;11.42;82.95
53116;BME280;39010;48.088;7.954;2022-09-17T10:18:44;98708.25;;;12.21;78.84
53116;BME280;39010;48.088;7.954;2022-09-17T10:23:45;98700.56;;;11.81;77.55
53116;BME280;39010;48.088;7.954;2022-09-17T10:26:28;98714.56;;;11.76;79.79
53116;BME280;39010;48.088;7.954;2022-09-17T10:29:00;98706.19;;;12.01;79.84
53116;BME280;39010;48.088;7.954;2022-09-17T10:31:46;98702.97;;;11.76;84.07
53116;BME280;39010;48.088;7.954;2022-09-17T10:34:27;98706.13;;;11.49;79.44
53116;BME280;39010;48.088;7.954;2022-09-17T10:36:55;98705.81;;;11.89;79.56
53116;BME280;39010;48.088;7.954;2022-09-17T10:39:35;98707.38;;;11.99;79.22
53116;BME280;39010;48.088;7.954;2022-09-17T10:44:37;98703.28;;;11.51;76.23
53116;BME280;39010;48.088;7.954;2022-09-17T10:47:09;98703.84;;;11.46;77.45
53116;BME280;39010;48.088;7.954;2022-09-17T10:49:40;98713.66;;;11.54;78.81
53116;BME280;39010;48.088;7.954;2022-09-17T10:52:29;98711.59;;;11.71;78.46
53116;BME280;39010;48.088;7.954;2022-09-17T10:58:10;98719.66;;;11.71;76.44
53116;BME280;39010;48.088;7.954;2022-09-17T11:03:26;98713.38;;;11.49;75.44
53116;BME280;39010;48.088;7.954;2022-09-17T11:09:13;98706.69;;;11.60;76.26
53116;BME280;39010;48.088;7.954;2022-09-17T11:11:54;98694.78;;;11.84;74.78
53116;BME280;39010;48.088;7.954;2022-09-17T11:14:58;98704.78;;;12.05;73.51
53116;BME280;39010;48.088;7.954;2022-09-17T11:17:38;98697.81;;;11.96;73.08
53116;BME280;39010;48.088;7.954;2022-09-17T11:22:59;98698.84;;;11.95;74.01
53116;BME280;39010;48.088;7.954;2022-09-17T11:33:35;98702.50;;;11.72;76.48
53116;BME280;39010;48.088;7.954;2022-09-17T11:36:12;98701.47;;;11.73;74.98
53116;BME280;39010;48.088;7.954;2022-09-17T11:38:45;98697.88;;;11.81;72.95
53116;BME280;39010;48.088;7.954;2022-09-17T11:41:15;98701.16;;;11.98;75.14
53116;BME280;39010;48.088;7.954;2022-09-17T11:44:13;98698.22;;;12.30;74.47
53116;BME280;39010;48.088;7.954;2022-09-17T11:46:44;98697.63;;;12.13;73.04
53116;BME280;39010;48.088;7.954;2022-09-17T11:52:22;98693.53;;;12.60;69.25
53116;BME280;39010;48.088;7.954;2022-09-17T11:57:38;98683.91;;;12.51;69.39
53116;BME280;39010;48.088;7.954;2022-09-17T12:00:17;98681.59;;;12.70;69.26
53116;BME280;39010;48.088;7.954;2022-09-17T12:02:58;98681.69;;;12.83;68.76
53116;BME280;39010;48.088;7.954;2022-09-17T12:05:34;98673.16;;;13.92;67.12
53116;BME280;39010;48.088;7.954;2022-09-17T12:08:22;98673.03;;;14.47;64.11
53116;BME280;39010;48.088;7.954;2022-09-17T12:13:49;98685.69;;;12.94;65.98
53116;BME280;39010;48.088;7.954;2022-09-17T12:16:24;98674.53;;;12.69;66.90
53116;BME280;39010;48.088;7.954;2022-09-17T12:19:02;98673.84;;;12.38;67.68
53116;BME280;39010;48.088;7.954;2022-09-17T12:21:36;98677.16;;;12.40;68.26
53116;BME280;39010;48.088;7.954;2022-09-17T12:24:14;98677.38;;;12.38;70.08
53116;BME280;39010;48.088;7.954;2022-09-17T12:26:52;98666.97;;;12.57;69.75
53116;BME280;39010;48.088;7.954;2022-09-17T12:34:58;98671.09;;;13.10;66.79
53116;BME280;39010;48.088;7.954;2022-09-17T12:46:20;98655.53;;;12.77;66.70
53116;BME280;39010;48.088;7.954;2022-09-17T12:52:01;98649.53;;;13.10;65.88
53116;BME280;39010;48.088;7.954;2022-09-17T12:59:52;98642.34;;;13.59;65.32
53116;BME280;39010;48.088;7.954;2022-09-17T13:02:41;98637.34;;;13.63;62.81
53116;BME280;39010;48.088;7.954;2022-09-17T13:16:18;98628.78;;;14.08;56.25
53116;BME280;39010;48.088;7.954;2022-09-17T13:22:06;98620.06;;;14.93;54.61
53116;BME280;39010;48.088;7.954;2022-09-17T13:24:35;98607.59;;;14.85;52.49
53116;BME280;39010;48.088;7.954;2022-09-17T13:27:03;98602.94;;;15.13;54.46
53116;BME280;39010;48.088;7.954;2022-09-17T13:40:22;98614.41;;;13.94;57.14
53116;BME280;39010;48.088;7.954;2022-09-17T13:42:52;98611.19;;;13.57;56.40
53116;BME280;39010;48.088;7.954;2022-09-17T13:45:22;98628.97;;;13.44;57.26
53116;BME280;39010;48.088;7.954;2022-09-17T13:50:32;98623.69;;;13.71;59.75
53116;BME280;39010;48.088;7.954;2022-09-17T13:55:42;98617.47;;;13.70;57.25
53116;BME280;39010;48.088;7.954;2022-09-17T13:58:09;98619.53;;;13.68;56.07
53116;BME280;39010;48.088;7.954;2022-09-17T14:00:48;98628.00;;;13.59;56.67
53116;BME280;39010;48.088;7.954;2022-09-17T14:05:54;98629.59;;;14.08;57.39
53116;BME280;39010;48.088;7.954;2022-09-17T14:08:29;98609.22;;;14.19;56.58
53116;BME280;39010;48.088;7.954;2022-09-17T14:10:58;98621.91;;;13.98;55.55
53116;BME280;39010;48.088;7.954;2022-09-17T14:13:40;98622.28;;;13.89;56.75
53116;BME280;39010;48.088;7.954;2022-09-17T14:19:28;98618.28;;;13.64;55.25
53116;BME280;39010;48.088;7.954;2022-09-17T14:30:03;98628.22;;;13.64;56.52
53116;BME280;39010;48.088;7.954;2022-09-17T14:35:03;98635.28;;;13.65;56.29
53116;BME280;39010;48.088;7.954;2022-09-17T14:37:44;98633.13;;;14.16;55.91
53116;BME280;39010;48.088;7.954;2022-09-17T14:40:17;98640.78;;;13.98;55.88
53116;BME280;39010;48.088;7.954;2022-09-17T14:42:45;98640.81;;;14.12;54.79
53116;BME280;39010;48.088;7.954;2022-09-17T14:45:21;98633.81;;;14.71;53.00
53116;BME280;39010;48.088;7.954;2022-09-17T14:50:45;98630.84;;;14.06;54.88
53116;BME280;39010;48.088;7.954;2022-09-17T14:53:17;98637.88;;;14.00;55.78
53116;BME280;39010;48.088;7.954;2022-09-17T14:55:48;98634.91;;;13.75;57.04
53116;BME280;39010;48.088;7.954;2022-09-17T14:58:27;98629.75;;;13.87;57.63
53116;BME280;39010;48.088;7.954;2022-09-17T15:00:55;98629.97;;;13.92;58.09
53116;BME280;39010;48.088;7.954;2022-09-17T15:03:22;98636.94;;;13.66;58.50
53116;BME280;39010;48.088;7.954;2022-09-17T15:05:49;98630.34;;;13.75;58.14
53116;BME280;39010;48.088;7.954;2022-09-17T15:08:22;98628.38;;;14.31;57.87
53116;BME280;39010;48.088;7.954;2022-09-17T15:11:05;98627.53;;;14.98;56.18
53116;BME280;39010;48.088;7.954;2022-09-17T15:13:46;98620.47;;;14.50;56.18
53116;BME280;39010;48.088;7.954;2022-09-17T15:18:49;98623.81;;;14.92;56.83
53116;BME280;39010;48.088;7.954;2022-09-17T15:21:36;98624.88;;;14.78;57.42
53116;BME280;39010;48.088;7.954;2022-09-17T15:24:22;98616.72;;;14.57;56.34
53116;BME280;39010;48.088;7.954;2022-09-17T15:26:55;98620.25;;;14.38;55.63
53116;BME280;39010;48.088;7.954;2022-09-17T15:29:27;98606.97;;;14.36;56.39
53116;BME280;39010;48.088;7.954;2022-09-17T15:31:55;98612.16;;;14.58;55.70
53116;BME280;39010;48.088;7.954;2022-09-17T15:34:22;98617.50;;;15.19;55.08
53116;BME280;39010;48.088;7.954;2022-09-17T15:39:39;98616.94;;;14.90;54.99
53116;BME280;39010;48.088;7.954;2022-09-17T15:42:17;98621.31;;;14.77;55.85
53116;BME280;39010;48.088;7.954;2022-09-17T15:44:44;98635.44;;;14.32;54.48
53116;BME280;39010;48.088;7.954;2022-09-17T15:51:04;98633.84;;;13.69;56.53
53116;BME280;39010;48.088;7.954;2022-09-17T15:55:37;98642.38;;;13.31;58.95
53116;BME280;39010;48.088;7.954;2022-09-17T15:58:24;98651.59;;;13.08;59.26
53116;BME280;39010;48.088;7.954;2022-09-17T16:08:54;98656.53;;;13.04;61.29
53116;BME280;39010;48.088;7.954;2022-09-17T16:11:23;98657.78;;;13.02;61.91
53116;BME280;39010;48.088;7.954;2022-09-17T16:13:52;98652.81;;;13.05;61.96
53116;BME280;39010;48.088;7.954;2022-09-17T16:16:21;98662.94;;;13.03;61.87
53116;BME280;39010;48.088;7.954;2022-09-17T16:18:49;98664.34;;;12.92;62.04
53116;BME280;39010;48.088;7.954;2022-09-17T16:21:17;98661.03;;;12.97;63.08
53116;BME280;39010;48.088;7.954;2022-09-17T16:23:44;98666.66;;;12.95;63.02
53116;BME280;39010;48.088;7.954;2022-09-17T16:26:24;98672.03;;;12.95;63.31